<?xml version="1.0" encoding="UTF-8" standalone="no" ?>
<gpx xmlns="http://www.topografix.com/GPX/1/1" xmlns:xsi="http://www.w3.org/2001/XMLSchema-instance" xsi:schemaLocation="http://www.topografix.com/GPX/1/1 http://www.topografix.com/GPX/1/1/gpx.xsd" version="1.1" creator="VisuGPX - https://www.visugpx.com">
  <metadata>
    <name>boucles beaumont</name>
    <desc><![CDATA[boucles beaumont du périgord]]></desc>
  </metadata>
  <trk>
    <name><![CDATA[BBmt01]]></name>
    <trkseg>
      <trkpt lat="44.79503" lon="0.78515">
        <ele>104</ele>
        <time>2008-12-08T11:39:11Z</time>
      </trkpt>
      <trkpt lat="44.79488" lon="0.78495">
        <ele>106</ele>
        <time>2008-12-08T11:39:18Z</time>
      </trkpt>
      <trkpt lat="44.7947" lon="0.7848">
        <ele>107</ele>
        <time>2008-12-08T11:39:21Z</time>
      </trkpt>
      <trkpt lat="44.79455" lon="0.78455">
        <ele>108</ele>
        <time>2008-12-08T11:39:24Z</time>
      </trkpt>
      <trkpt lat="44.79448" lon="0.7842">
        <ele>109</ele>
        <time>2008-12-08T11:39:27Z</time>
      </trkpt>
      <trkpt lat="44.79443" lon="0.78385">
        <ele>112</ele>
        <time>2008-12-08T11:39:30Z</time>
      </trkpt>
      <trkpt lat="44.79433" lon="0.78358">
        <ele>114</ele>
        <time>2008-12-08T11:39:33Z</time>
      </trkpt>
      <trkpt lat="44.79418" lon="0.78343">
        <ele>117</ele>
        <time>2008-12-08T11:39:38Z</time>
      </trkpt>
      <trkpt lat="44.79408" lon="0.78318">
        <ele>122</ele>
        <time>2008-12-08T11:39:57Z</time>
      </trkpt>
      <trkpt lat="44.79408" lon="0.7829">
        <ele>119</ele>
        <time>2008-12-08T11:40:04Z</time>
      </trkpt>
      <trkpt lat="44.79415" lon="0.78265">
        <ele>117</ele>
        <time>2008-12-08T11:40:10Z</time>
      </trkpt>
      <trkpt lat="44.79428" lon="0.78243">
        <ele>118</ele>
        <time>2008-12-08T11:40:15Z</time>
      </trkpt>
      <trkpt lat="44.7944" lon="0.78215">
        <ele>119</ele>
        <time>2008-12-08T11:40:19Z</time>
      </trkpt>
      <trkpt lat="44.79448" lon="0.7819">
        <ele>118</ele>
        <time>2008-12-08T11:40:22Z</time>
      </trkpt>
      <trkpt lat="44.7945" lon="0.7816">
        <ele>119</ele>
        <time>2008-12-08T11:40:26Z</time>
      </trkpt>
      <trkpt lat="44.79453" lon="0.78128">
        <ele>119</ele>
        <time>2008-12-08T11:40:30Z</time>
      </trkpt>
      <trkpt lat="44.79453" lon="0.78095">
        <ele>119</ele>
        <time>2008-12-08T11:40:34Z</time>
      </trkpt>
      <trkpt lat="44.7945" lon="0.78065">
        <ele>121</ele>
        <time>2008-12-08T11:40:38Z</time>
      </trkpt>
      <trkpt lat="44.79443" lon="0.7804">
        <ele>122</ele>
        <time>2008-12-08T11:40:42Z</time>
      </trkpt>
      <trkpt lat="44.79425" lon="0.78048">
        <ele>124</ele>
        <time>2008-12-08T11:40:54Z</time>
      </trkpt>
      <trkpt lat="44.79408" lon="0.78065">
        <ele>131</ele>
        <time>2008-12-08T11:40:58Z</time>
      </trkpt>
      <trkpt lat="44.79393" lon="0.78083">
        <ele>135</ele>
        <time>2008-12-08T11:41:02Z</time>
      </trkpt>
      <trkpt lat="44.79378" lon="0.78103">
        <ele>136</ele>
        <time>2008-12-08T11:41:06Z</time>
      </trkpt>
      <trkpt lat="44.79363" lon="0.78128">
        <ele>134</ele>
        <time>2008-12-08T11:41:10Z</time>
      </trkpt>
      <trkpt lat="44.79348" lon="0.78148">
        <ele>135</ele>
        <time>2008-12-08T11:41:14Z</time>
      </trkpt>
      <trkpt lat="44.79333" lon="0.7817">
        <ele>136</ele>
        <time>2008-12-08T11:41:18Z</time>
      </trkpt>
      <trkpt lat="44.79318" lon="0.78188">
        <ele>141</ele>
        <time>2008-12-08T11:41:22Z</time>
      </trkpt>
      <trkpt lat="44.79298" lon="0.78195">
        <ele>144</ele>
        <time>2008-12-08T11:41:28Z</time>
      </trkpt>
      <trkpt lat="44.7928" lon="0.78203">
        <ele>146</ele>
        <time>2008-12-08T11:41:34Z</time>
      </trkpt>
      <trkpt lat="44.79258" lon="0.7821">
        <ele>146</ele>
        <time>2008-12-08T11:41:39Z</time>
      </trkpt>
      <trkpt lat="44.79238" lon="0.78218">
        <ele>147</ele>
        <time>2008-12-08T11:41:43Z</time>
      </trkpt>
      <trkpt lat="44.7922" lon="0.78225">
        <ele>148</ele>
        <time>2008-12-08T11:41:47Z</time>
      </trkpt>
      <trkpt lat="44.79203" lon="0.78235">
        <ele>149</ele>
        <time>2008-12-08T11:41:52Z</time>
      </trkpt>
      <trkpt lat="44.79185" lon="0.78225">
        <ele>149</ele>
        <time>2008-12-08T11:42:08Z</time>
      </trkpt>
      <trkpt lat="44.7917" lon="0.7821">
        <ele>149</ele>
        <time>2008-12-08T11:42:13Z</time>
      </trkpt>
      <trkpt lat="44.79153" lon="0.78198">
        <ele>148</ele>
        <time>2008-12-08T11:42:18Z</time>
      </trkpt>
      <trkpt lat="44.79133" lon="0.78183">
        <ele>148</ele>
        <time>2008-12-08T11:42:23Z</time>
      </trkpt>
      <trkpt lat="44.79118" lon="0.78168">
        <ele>148</ele>
        <time>2008-12-08T11:42:27Z</time>
      </trkpt>
      <trkpt lat="44.79103" lon="0.78153">
        <ele>148</ele>
        <time>2008-12-08T11:42:31Z</time>
      </trkpt>
      <trkpt lat="44.79085" lon="0.78145">
        <ele>153</ele>
        <time>2008-12-08T11:49:54Z</time>
      </trkpt>
      <trkpt lat="44.79093" lon="0.7812">
        <ele>150</ele>
        <time>2008-12-08T11:52:41Z</time>
      </trkpt>
      <trkpt lat="44.7909" lon="0.7809">
        <ele>150</ele>
        <time>2008-12-08T11:52:45Z</time>
      </trkpt>
      <trkpt lat="44.79088" lon="0.7806">
        <ele>150</ele>
        <time>2008-12-08T11:52:48Z</time>
      </trkpt>
      <trkpt lat="44.79085" lon="0.78028">
        <ele>150</ele>
        <time>2008-12-08T11:52:51Z</time>
      </trkpt>
      <trkpt lat="44.79085" lon="0.77993">
        <ele>150</ele>
        <time>2008-12-08T11:52:54Z</time>
      </trkpt>
      <trkpt lat="44.79085" lon="0.77958">
        <ele>150</ele>
        <time>2008-12-08T11:52:57Z</time>
      </trkpt>
      <trkpt lat="44.79083" lon="0.77925">
        <ele>150</ele>
        <time>2008-12-08T11:53:00Z</time>
      </trkpt>
      <trkpt lat="44.7908" lon="0.7789">
        <ele>150</ele>
        <time>2008-12-08T11:53:03Z</time>
      </trkpt>
      <trkpt lat="44.7908" lon="0.77863">
        <ele>150</ele>
        <time>2008-12-08T11:53:06Z</time>
      </trkpt>
      <trkpt lat="44.79075" lon="0.7783">
        <ele>149</ele>
        <time>2008-12-08T11:53:57Z</time>
      </trkpt>
      <trkpt lat="44.7907" lon="0.77805">
        <ele>149</ele>
        <time>2008-12-08T11:54:00Z</time>
      </trkpt>
      <trkpt lat="44.79063" lon="0.77778">
        <ele>149</ele>
        <time>2008-12-08T11:54:03Z</time>
      </trkpt>
      <trkpt lat="44.7906" lon="0.7775">
        <ele>149</ele>
        <time>2008-12-08T11:54:06Z</time>
      </trkpt>
      <trkpt lat="44.79058" lon="0.77718">
        <ele>151</ele>
        <time>2008-12-08T11:54:10Z</time>
      </trkpt>
      <trkpt lat="44.7906" lon="0.7769">
        <ele>152</ele>
        <time>2008-12-08T11:54:14Z</time>
      </trkpt>
      <trkpt lat="44.79065" lon="0.77663">
        <ele>152</ele>
        <time>2008-12-08T11:54:19Z</time>
      </trkpt>
      <trkpt lat="44.79073" lon="0.77635">
        <ele>149</ele>
        <time>2008-12-08T11:54:23Z</time>
      </trkpt>
      <trkpt lat="44.79078" lon="0.7761">
        <ele>148</ele>
        <time>2008-12-08T11:54:27Z</time>
      </trkpt>
      <trkpt lat="44.79085" lon="0.77583">
        <ele>147</ele>
        <time>2008-12-08T11:54:31Z</time>
      </trkpt>
      <trkpt lat="44.7909" lon="0.77558">
        <ele>147</ele>
        <time>2008-12-08T11:54:35Z</time>
      </trkpt>
      <trkpt lat="44.79095" lon="0.77525">
        <ele>147</ele>
        <time>2008-12-08T11:54:39Z</time>
      </trkpt>
      <trkpt lat="44.79095" lon="0.77495">
        <ele>147</ele>
        <time>2008-12-08T11:54:43Z</time>
      </trkpt>
      <trkpt lat="44.79095" lon="0.7746">
        <ele>146</ele>
        <time>2008-12-08T11:54:47Z</time>
      </trkpt>
      <trkpt lat="44.79093" lon="0.77433">
        <ele>147</ele>
        <time>2008-12-08T11:54:51Z</time>
      </trkpt>
      <trkpt lat="44.79085" lon="0.77408">
        <ele>147</ele>
        <time>2008-12-08T11:54:56Z</time>
      </trkpt>
      <trkpt lat="44.79073" lon="0.77385">
        <ele>147</ele>
        <time>2008-12-08T11:55:01Z</time>
      </trkpt>
      <trkpt lat="44.79063" lon="0.77363">
        <ele>150</ele>
        <time>2008-12-08T11:55:07Z</time>
      </trkpt>
      <trkpt lat="44.7905" lon="0.77343">
        <ele>153</ele>
        <time>2008-12-08T11:55:13Z</time>
      </trkpt>
      <trkpt lat="44.79038" lon="0.77318">
        <ele>154</ele>
        <time>2008-12-08T11:55:19Z</time>
      </trkpt>
      <trkpt lat="44.79028" lon="0.77293">
        <ele>153</ele>
        <time>2008-12-08T11:55:32Z</time>
      </trkpt>
      <trkpt lat="44.79018" lon="0.77268">
        <ele>152</ele>
        <time>2008-12-08T11:55:37Z</time>
      </trkpt>
      <trkpt lat="44.79008" lon="0.7724">
        <ele>153</ele>
        <time>2008-12-08T11:55:42Z</time>
      </trkpt>
      <trkpt lat="44.78998" lon="0.77215">
        <ele>152</ele>
        <time>2008-12-08T11:55:48Z</time>
      </trkpt>
      <trkpt lat="44.78988" lon="0.7719">
        <ele>152</ele>
        <time>2008-12-08T11:55:54Z</time>
      </trkpt>
      <trkpt lat="44.78975" lon="0.77165">
        <ele>150</ele>
        <time>2008-12-08T11:55:59Z</time>
      </trkpt>
      <trkpt lat="44.78965" lon="0.77143">
        <ele>147</ele>
        <time>2008-12-08T11:56:04Z</time>
      </trkpt>
      <trkpt lat="44.78955" lon="0.7712">
        <ele>146</ele>
        <time>2008-12-08T11:56:09Z</time>
      </trkpt>
      <trkpt lat="44.78948" lon="0.77095">
        <ele>146</ele>
        <time>2008-12-08T11:56:15Z</time>
      </trkpt>
      <trkpt lat="44.7894" lon="0.7707">
        <ele>148</ele>
        <time>2008-12-08T11:56:22Z</time>
      </trkpt>
      <trkpt lat="44.78935" lon="0.77043">
        <ele>148</ele>
        <time>2008-12-08T11:56:27Z</time>
      </trkpt>
      <trkpt lat="44.78935" lon="0.77015">
        <ele>149</ele>
        <time>2008-12-08T11:56:32Z</time>
      </trkpt>
      <trkpt lat="44.78933" lon="0.76988">
        <ele>151</ele>
        <time>2008-12-08T11:56:40Z</time>
      </trkpt>
      <trkpt lat="44.78923" lon="0.76958">
        <ele>158</ele>
        <time>2008-12-08T11:57:19Z</time>
      </trkpt>
      <trkpt lat="44.7892" lon="0.76928">
        <ele>156</ele>
        <time>2008-12-08T11:57:24Z</time>
      </trkpt>
      <trkpt lat="44.78923" lon="0.769">
        <ele>152</ele>
        <time>2008-12-08T11:57:30Z</time>
      </trkpt>
      <trkpt lat="44.7892" lon="0.76868">
        <ele>152</ele>
        <time>2008-12-08T11:57:44Z</time>
      </trkpt>
      <trkpt lat="44.7892" lon="0.76835">
        <ele>151</ele>
        <time>2008-12-08T11:57:49Z</time>
      </trkpt>
      <trkpt lat="44.7892" lon="0.76805">
        <ele>150</ele>
        <time>2008-12-08T11:57:53Z</time>
      </trkpt>
      <trkpt lat="44.7892" lon="0.76773">
        <ele>148</ele>
        <time>2008-12-08T11:57:57Z</time>
      </trkpt>
      <trkpt lat="44.7892" lon="0.76745">
        <ele>146</ele>
        <time>2008-12-08T11:58:01Z</time>
      </trkpt>
      <trkpt lat="44.7892" lon="0.76715">
        <ele>144</ele>
        <time>2008-12-08T11:58:06Z</time>
      </trkpt>
      <trkpt lat="44.78923" lon="0.76685">
        <ele>147</ele>
        <time>2008-12-08T11:58:11Z</time>
      </trkpt>
      <trkpt lat="44.78923" lon="0.76658">
        <ele>148</ele>
        <time>2008-12-08T11:58:19Z</time>
      </trkpt>
      <trkpt lat="44.78925" lon="0.76628">
        <ele>147</ele>
        <time>2008-12-08T11:58:32Z</time>
      </trkpt>
      <trkpt lat="44.78928" lon="0.76598">
        <ele>145</ele>
        <time>2008-12-08T11:58:38Z</time>
      </trkpt>
      <trkpt lat="44.7893" lon="0.7657">
        <ele>145</ele>
        <time>2008-12-08T11:58:45Z</time>
      </trkpt>
      <trkpt lat="44.7893" lon="0.7654">
        <ele>146</ele>
        <time>2008-12-08T11:58:53Z</time>
      </trkpt>
      <trkpt lat="44.7892" lon="0.76518">
        <ele>148</ele>
        <time>2008-12-08T11:59:00Z</time>
      </trkpt>
      <trkpt lat="44.78918" lon="0.7649">
        <ele>150</ele>
        <time>2008-12-08T11:59:08Z</time>
      </trkpt>
      <trkpt lat="44.78923" lon="0.76463">
        <ele>153</ele>
        <time>2008-12-08T11:59:15Z</time>
      </trkpt>
      <trkpt lat="44.7893" lon="0.76438">
        <ele>151</ele>
        <time>2008-12-08T11:59:21Z</time>
      </trkpt>
      <trkpt lat="44.7894" lon="0.76413">
        <ele>150</ele>
        <time>2008-12-08T11:59:27Z</time>
      </trkpt>
      <trkpt lat="44.7895" lon="0.76388">
        <ele>145</ele>
        <time>2008-12-08T11:59:33Z</time>
      </trkpt>
      <trkpt lat="44.7896" lon="0.76363">
        <ele>139</ele>
        <time>2008-12-08T11:59:40Z</time>
      </trkpt>
      <trkpt lat="44.7897" lon="0.7634">
        <ele>138</ele>
        <time>2008-12-08T11:59:45Z</time>
      </trkpt>
      <trkpt lat="44.78978" lon="0.76315">
        <ele>134</ele>
        <time>2008-12-08T11:59:50Z</time>
      </trkpt>
      <trkpt lat="44.78985" lon="0.76288">
        <ele>131</ele>
        <time>2008-12-08T11:59:55Z</time>
      </trkpt>
      <trkpt lat="44.78995" lon="0.76263">
        <ele>129</ele>
        <time>2008-12-08T12:00:01Z</time>
      </trkpt>
      <trkpt lat="44.79" lon="0.76235">
        <ele>130</ele>
        <time>2008-12-08T12:00:07Z</time>
      </trkpt>
      <trkpt lat="44.79013" lon="0.76213">
        <ele>128</ele>
        <time>2008-12-08T12:00:14Z</time>
      </trkpt>
      <trkpt lat="44.7903" lon="0.76203">
        <ele>130</ele>
        <time>2008-12-08T12:01:10Z</time>
      </trkpt>
      <trkpt lat="44.79048" lon="0.7619">
        <ele>130</ele>
        <time>2008-12-08T12:01:17Z</time>
      </trkpt>
      <trkpt lat="44.79065" lon="0.76175">
        <ele>124</ele>
        <time>2008-12-08T12:01:24Z</time>
      </trkpt>
      <trkpt lat="44.79083" lon="0.76163">
        <ele>125</ele>
        <time>2008-12-08T12:01:32Z</time>
      </trkpt>
      <trkpt lat="44.791" lon="0.7615">
        <ele>126</ele>
        <time>2008-12-08T12:01:40Z</time>
      </trkpt>
      <trkpt lat="44.79115" lon="0.76135">
        <ele>125</ele>
        <time>2008-12-08T12:01:47Z</time>
      </trkpt>
      <trkpt lat="44.79133" lon="0.76123">
        <ele>124</ele>
        <time>2008-12-08T12:01:54Z</time>
      </trkpt>
      <trkpt lat="44.79148" lon="0.76108">
        <ele>125</ele>
        <time>2008-12-08T12:02:00Z</time>
      </trkpt>
      <trkpt lat="44.79163" lon="0.7609">
        <ele>125</ele>
        <time>2008-12-08T12:02:07Z</time>
      </trkpt>
      <trkpt lat="44.7918" lon="0.76075">
        <ele>123</ele>
        <time>2008-12-08T12:02:23Z</time>
      </trkpt>
      <trkpt lat="44.79193" lon="0.76053">
        <ele>120</ele>
        <time>2008-12-08T12:02:30Z</time>
      </trkpt>
      <trkpt lat="44.79203" lon="0.7603">
        <ele>117</ele>
        <time>2008-12-08T12:02:36Z</time>
      </trkpt>
      <trkpt lat="44.79218" lon="0.7601">
        <ele>112</ele>
        <time>2008-12-08T12:02:42Z</time>
      </trkpt>
      <trkpt lat="44.79233" lon="0.75995">
        <ele>110</ele>
        <time>2008-12-08T12:02:49Z</time>
      </trkpt>
      <trkpt lat="44.7925" lon="0.75978">
        <ele>111</ele>
        <time>2008-12-08T12:02:55Z</time>
      </trkpt>
      <trkpt lat="44.79265" lon="0.75963">
        <ele>113</ele>
        <time>2008-12-08T12:03:00Z</time>
      </trkpt>
      <trkpt lat="44.7928" lon="0.75945">
        <ele>117</ele>
        <time>2008-12-08T12:03:05Z</time>
      </trkpt>
      <trkpt lat="44.79298" lon="0.75928">
        <ele>115</ele>
        <time>2008-12-08T12:03:11Z</time>
      </trkpt>
      <trkpt lat="44.7931" lon="0.75908">
        <ele>117</ele>
        <time>2008-12-08T12:03:16Z</time>
      </trkpt>
      <trkpt lat="44.79323" lon="0.75888">
        <ele>114</ele>
        <time>2008-12-08T12:03:22Z</time>
      </trkpt>
      <trkpt lat="44.79338" lon="0.75868">
        <ele>112</ele>
        <time>2008-12-08T12:03:28Z</time>
      </trkpt>
      <trkpt lat="44.79353" lon="0.75848">
        <ele>115</ele>
        <time>2008-12-08T12:03:34Z</time>
      </trkpt>
      <trkpt lat="44.7937" lon="0.75833">
        <ele>115</ele>
        <time>2008-12-08T12:03:40Z</time>
      </trkpt>
      <trkpt lat="44.7938" lon="0.7581">
        <ele>116</ele>
        <time>2008-12-08T12:03:45Z</time>
      </trkpt>
      <trkpt lat="44.79393" lon="0.75788">
        <ele>117</ele>
        <time>2008-12-08T12:03:52Z</time>
      </trkpt>
      <trkpt lat="44.79403" lon="0.75763">
        <ele>115</ele>
        <time>2008-12-08T12:03:58Z</time>
      </trkpt>
      <trkpt lat="44.79405" lon="0.75735">
        <ele>108</ele>
        <time>2008-12-08T12:04:05Z</time>
      </trkpt>
      <trkpt lat="44.79408" lon="0.75708">
        <ele>103</ele>
        <time>2008-12-08T12:04:10Z</time>
      </trkpt>
      <trkpt lat="44.79418" lon="0.7568">
        <ele>98</ele>
        <time>2008-12-08T12:04:17Z</time>
      </trkpt>
      <trkpt lat="44.79428" lon="0.75658">
        <ele>94</ele>
        <time>2008-12-08T12:04:22Z</time>
      </trkpt>
      <trkpt lat="44.79438" lon="0.75635">
        <ele>94</ele>
        <time>2008-12-08T12:04:30Z</time>
      </trkpt>
      <trkpt lat="44.79448" lon="0.7561">
        <ele>91</ele>
        <time>2008-12-08T12:04:37Z</time>
      </trkpt>
      <trkpt lat="44.79455" lon="0.75583">
        <ele>88</ele>
        <time>2008-12-08T12:04:44Z</time>
      </trkpt>
      <trkpt lat="44.79468" lon="0.75558">
        <ele>87</ele>
        <time>2008-12-08T12:04:51Z</time>
      </trkpt>
      <trkpt lat="44.79475" lon="0.75533">
        <ele>82</ele>
        <time>2008-12-08T12:04:58Z</time>
      </trkpt>
      <trkpt lat="44.7949" lon="0.7551">
        <ele>81</ele>
        <time>2008-12-08T12:05:04Z</time>
      </trkpt>
      <trkpt lat="44.79508" lon="0.75493">
        <ele>81</ele>
        <time>2008-12-08T12:05:10Z</time>
      </trkpt>
      <trkpt lat="44.79523" lon="0.75475">
        <ele>79</ele>
        <time>2008-12-08T12:05:16Z</time>
      </trkpt>
      <trkpt lat="44.79538" lon="0.7546">
        <ele>77</ele>
        <time>2008-12-08T12:05:23Z</time>
      </trkpt>
      <trkpt lat="44.79553" lon="0.75443">
        <ele>76</ele>
        <time>2008-12-08T12:05:31Z</time>
      </trkpt>
      <trkpt lat="44.79568" lon="0.75425">
        <ele>75</ele>
        <time>2008-12-08T12:05:38Z</time>
      </trkpt>
      <trkpt lat="44.79583" lon="0.7541">
        <ele>70</ele>
        <time>2008-12-08T12:05:49Z</time>
      </trkpt>
      <trkpt lat="44.79595" lon="0.7539">
        <ele>64</ele>
        <time>2008-12-08T12:07:57Z</time>
      </trkpt>
      <trkpt lat="44.79608" lon="0.7537">
        <ele>59</ele>
        <time>2008-12-08T12:08:15Z</time>
      </trkpt>
      <trkpt lat="44.79628" lon="0.75363">
        <ele>60</ele>
        <time>2008-12-08T12:08:19Z</time>
      </trkpt>
      <trkpt lat="44.7965" lon="0.75355">
        <ele>63</ele>
        <time>2008-12-08T12:08:23Z</time>
      </trkpt>
      <trkpt lat="44.79668" lon="0.75348">
        <ele>62</ele>
        <time>2008-12-08T12:08:26Z</time>
      </trkpt>
      <trkpt lat="44.79685" lon="0.75335">
        <ele>64</ele>
        <time>2008-12-08T12:08:29Z</time>
      </trkpt>
      <trkpt lat="44.797" lon="0.75313">
        <ele>61</ele>
        <time>2008-12-08T12:08:36Z</time>
      </trkpt>
      <trkpt lat="44.7971" lon="0.75288">
        <ele>62</ele>
        <time>2008-12-08T12:08:41Z</time>
      </trkpt>
      <trkpt lat="44.79703" lon="0.75263">
        <ele>60</ele>
        <time>2008-12-08T12:08:52Z</time>
      </trkpt>
      <trkpt lat="44.79688" lon="0.75238">
        <ele>58</ele>
        <time>2008-12-08T12:08:56Z</time>
      </trkpt>
      <trkpt lat="44.79675" lon="0.7521">
        <ele>57</ele>
        <time>2008-12-08T12:08:59Z</time>
      </trkpt>
      <trkpt lat="44.79658" lon="0.7518">
        <ele>58</ele>
        <time>2008-12-08T12:09:02Z</time>
      </trkpt>
      <trkpt lat="44.79643" lon="0.75153">
        <ele>60</ele>
        <time>2008-12-08T12:09:05Z</time>
      </trkpt>
      <trkpt lat="44.7963" lon="0.75125">
        <ele>59</ele>
        <time>2008-12-08T12:09:08Z</time>
      </trkpt>
      <trkpt lat="44.79618" lon="0.75098">
        <ele>57</ele>
        <time>2008-12-08T12:09:11Z</time>
      </trkpt>
      <trkpt lat="44.79603" lon="0.7507">
        <ele>58</ele>
        <time>2008-12-08T12:09:14Z</time>
      </trkpt>
      <trkpt lat="44.79588" lon="0.7504">
        <ele>57</ele>
        <time>2008-12-08T12:09:17Z</time>
      </trkpt>
      <trkpt lat="44.79575" lon="0.75013">
        <ele>57</ele>
        <time>2008-12-08T12:09:20Z</time>
      </trkpt>
      <trkpt lat="44.79563" lon="0.7499">
        <ele>59</ele>
        <time>2008-12-08T12:09:23Z</time>
      </trkpt>
      <trkpt lat="44.79548" lon="0.74975">
        <ele>60</ele>
        <time>2008-12-08T12:09:28Z</time>
      </trkpt>
      <trkpt lat="44.7953" lon="0.7499">
        <ele>63</ele>
        <time>2008-12-08T12:09:32Z</time>
      </trkpt>
      <trkpt lat="44.79513" lon="0.75">
        <ele>63</ele>
        <time>2008-12-08T12:09:34Z</time>
      </trkpt>
      <trkpt lat="44.79495" lon="0.7501">
        <ele>65</ele>
        <time>2008-12-08T12:09:38Z</time>
      </trkpt>
      <trkpt lat="44.79473" lon="0.75015">
        <ele>63</ele>
        <time>2008-12-08T12:09:41Z</time>
      </trkpt>
      <trkpt lat="44.79453" lon="0.7502">
        <ele>61</ele>
        <time>2008-12-08T12:09:44Z</time>
      </trkpt>
      <trkpt lat="44.79435" lon="0.7503">
        <ele>62</ele>
        <time>2008-12-08T12:09:47Z</time>
      </trkpt>
      <trkpt lat="44.79418" lon="0.7504">
        <ele>63</ele>
        <time>2008-12-08T12:09:50Z</time>
      </trkpt>
      <trkpt lat="44.794" lon="0.7505">
        <ele>63</ele>
        <time>2008-12-08T12:09:53Z</time>
      </trkpt>
      <trkpt lat="44.79383" lon="0.7506">
        <ele>64</ele>
        <time>2008-12-08T12:09:56Z</time>
      </trkpt>
      <trkpt lat="44.79363" lon="0.7506">
        <ele>64</ele>
        <time>2008-12-08T12:10:07Z</time>
      </trkpt>
      <trkpt lat="44.79358" lon="0.7503">
        <ele>65</ele>
        <time>2008-12-08T12:10:12Z</time>
      </trkpt>
      <trkpt lat="44.79355" lon="0.75003">
        <ele>65</ele>
        <time>2008-12-08T12:10:15Z</time>
      </trkpt>
      <trkpt lat="44.79353" lon="0.7497">
        <ele>66</ele>
        <time>2008-12-08T12:10:18Z</time>
      </trkpt>
      <trkpt lat="44.79353" lon="0.74933">
        <ele>67</ele>
        <time>2008-12-08T12:10:21Z</time>
      </trkpt>
      <trkpt lat="44.79353" lon="0.74905">
        <ele>67</ele>
        <time>2008-12-08T12:10:23Z</time>
      </trkpt>
      <trkpt lat="44.79358" lon="0.7487">
        <ele>70</ele>
        <time>2008-12-08T12:10:26Z</time>
      </trkpt>
      <trkpt lat="44.79363" lon="0.74845">
        <ele>72</ele>
        <time>2008-12-08T12:10:28Z</time>
      </trkpt>
      <trkpt lat="44.79373" lon="0.74823">
        <ele>72</ele>
        <time>2008-12-08T12:10:30Z</time>
      </trkpt>
      <trkpt lat="44.79385" lon="0.74803">
        <ele>74</ele>
        <time>2008-12-08T12:10:32Z</time>
      </trkpt>
      <trkpt lat="44.79395" lon="0.74773">
        <ele>75</ele>
        <time>2008-12-08T12:10:35Z</time>
      </trkpt>
      <trkpt lat="44.79402" lon="0.74754">
        <ele>78</ele>
        <time>2008-12-08T12:10:39Z</time>
      </trkpt>
      <trkpt lat="44.79403" lon="0.74741">
        <ele>79</ele>
        <time>2008-12-08T12:14:03Z</time>
      </trkpt>
    </trkseg>
  </trk>
</gpx>